Time;durP1;ratioP1;P1;durP2;ratioP2;P2;SDS_P1;SDS_P2;PMS_P1;PMS_P2;Temp;Humidity;BMP_temperature;BMP_pressure;BME280_temperature;BME280_humidity;BME280_pressure;Samples;Min_cycle;Max_cycle;Signal;HPM_P1;HPM_P2
2022/06/17 00:00:26;;;;;;;7.65;3.88;;;15.30;99.90;;;;;;5016736;28;20537;-88
2022/06/17 00:02:52;;;;;;;6.15;3.38;;;15.30;99.90;;;;;;5034496;28;20052;-87
2022/06/17 00:05:17;;;;;;;6.80;3.30;;;15.30;99.90;;;;;;5016585;28;20028;-87
2022/06/17 00:07:43;;;;;;;5.07;3.50;;;15.30;99.90;;;;;;5016788;28;20025;-88
2022/06/17 00:10:20;;;;;;;7.93;3.35;;;15.30;99.90;;;;;;5016761;28;20057;-88
2022/06/17 00:12:46;;;;;;;5.20;3.55;;;15.30;99.90;;;;;;5016788;28;20029;-88
2022/06/17 00:15:11;;;;;;;5.80;3.60;;;15.30;99.90;;;;;;5016718;28;20018;-87
2022/06/17 00:17:37;;;;;;;4.85;3.10;;;15.40;99.90;;;;;;5016633;28;20034;-87
2022/06/17 00:20:08;;;;;;;8.25;3.13;;;15.40;99.90;;;;;;5033871;28;20021;-88
2022/06/17 00:22:44;;;;;;;4.57;3.25;;;15.40;99.90;;;;;;5016376;28;20025;-88
2022/06/17 00:25:32;;;;;;;6.32;3.40;;;15.50;99.90;;;;;;5016513;28;20032;-87
2022/06/17 00:27:58;;;;;;;5.57;3.17;;;15.50;99.90;;;;;;5033006;28;20029;-88
2022/06/17 00:30:28;;;;;;;6.20;3.10;;;15.50;99.90;;;;;;5016421;28;20033;-88
2022/06/17 00:32:55;;;;;;;11.68;3.15;;;15.50;99.90;;;;;;5016757;28;20167;-88
2022/06/17 00:35:23;;;;;;;6.03;3.28;;;15.50;99.90;;;;;;5033623;28;20045;-87
2022/06/17 00:37:48;;;;;;;4.32;2.75;;;15.60;99.90;;;;;;5016387;28;20038;-87
2022/06/17 00:40:18;;;;;;;6.70;3.10;;;15.60;99.90;;;;;;5016548;28;20025;-88
2022/06/17 00:42:44;;;;;;;5.07;3.25;;;15.60;99.90;;;;;;5033811;28;20101;-87
2022/06/17 00:45:25;;;;;;;6.32;3.20;;;15.60;99.90;;;;;;5016082;28;20057;-88
2022/06/17 00:47:55;;;;;;;5.68;2.92;;;15.60;99.90;;;;;;5016255;28;20041;-88
2022/06/17 00:50:28;;;;;;;4.70;2.80;;;15.60;99.90;;;;;;5016182;28;20220;-87
2022/06/17 00:53:16;;;;;;;5.78;3.38;;;15.60;99.90;;;;;;5022297;28;20478;-87
2022/06/17 00:56:11;;;;;;;5.53;3.55;;;15.60;99.90;;;;;;5039019;28;20026;-87
2022/06/17 00:59:00;;;;;;;6.05;3.65;;;15.60;99.90;;;;;;5038999;28;20033;-87
2022/06/17 01:01:29;;;;;;;6.05;3.83;;;15.60;99.90;;;;;;5039262;28;20029;-88
2022/06/17 01:03:58;;;;;;;6.20;3.85;;;15.50;99.90;;;;;;5039275;28;20026;-87
2022/06/17 01:06:30;;;;;;;9.07;3.70;;;15.50;99.90;;;;;;5038920;28;20401;-88
2022/06/17 01:11:54;;;;;;;6.20;3.70;;;15.50;99.90;;;;;;5040152;28;20032;-88
2022/06/17 01:14:21;;;;;;;4.30;3.10;;;15.50;99.90;;;;;;5039110;28;20025;-87
2022/06/17 01:16:48;;;;;;;3.97;3.00;;;15.50;99.90;;;;;;5039797;28;20033;-88
2022/06/17 01:19:30;;;;;;;9.02;3.92;;;15.50;99.90;;;;;;5040157;28;20032;-88
2022/06/17 01:22:07;;;;;;;6.53;3.72;;;15.50;99.90;;;;;;5038874;28;20108;-88
2022/06/17 01:24:34;;;;;;;6.95;3.75;;;15.50;99.90;;;;;;5040265;28;20049;-88
2022/06/17 01:27:00;;;;;;;7.18;3.60;;;15.40;99.90;;;;;;5038895;28;20052;-88
2022/06/17 01:29:25;;;;;;;5.78;3.08;;;15.30;99.90;;;;;;5038955;28;20032;-87
2022/06/17 01:31:54;;;;;;;4.68;3.33;;;15.30;99.90;;;;;;5038980;28;20017;-88
2022/06/17 01:34:21;;;;;;;8.25;3.90;;;15.30;99.90;;;;;;5038479;28;20053;-88
2022/06/17 01:36:47;;;;;;;3.85;3.40;;;15.30;99.90;;;;;;5038931;28;20032;-88
2022/06/17 01:39:13;;;;;;;6.00;3.45;;;15.20;99.90;;;;;;5038901;28;20483;-88
2022/06/17 01:41:41;;;;;;;6.47;4.28;;;15.20;99.90;;;;;;5038635;28;20040;-88
2022/06/17 01:44:33;;;;;;;6.68;3.30;;;15.20;99.90;;;;;;5039823;28;20533;-87
2022/06/17 01:47:01;;;;;;;6.25;3.25;;;15.10;99.90;;;;;;5038977;28;20109;-88
2022/06/17 01:49:32;;;;;;;4.72;2.67;;;15.00;99.90;;;;;;5039665;28;20021;-88
2022/06/17 01:52:04;;;;;;;3.90;3.03;;;15.00;99.90;;;;;;5039105;28;20025;-88
2022/06/17 01:54:36;;;;;;;4.53;3.03;;;15.00;99.90;;;;;;5031808;28;20090;-88
2022/06/17 01:57:05;;;;;;;7.25;3.05;;;14.90;99.90;;;;;;5022110;28;20033;-88
2022/06/17 01:59:52;;;;;;;4.03;2.97;;;14.90;99.90;;;;;;5021891;28;20119;-87
2022/06/17 02:02:18;;;;;;;6.90;3.33;;;14.80;99.90;;;;;;5038214;28;20034;-87
2022/06/17 02:04:48;;;;;;;7.13;3.42;;;14.70;99.90;;;;;;5018243;28;20255;-88
2022/06/17 02:07:21;;;;;;;7.60;3.60;;;14.70;99.90;;;;;;5019229;28;20022;-88
2022/06/17 02:09:46;;;;;;;;;;;14.70;99.90;;;;;;5019195;28;20029;-87
2022/06/17 02:12:14;;;;;;;4.43;3.67;;;14.60;99.90;;;;;;5019265;28;19928;-88
2022/06/17 02:14:41;;;;;;;5.05;3.50;;;14.50;99.90;;;;;;5018885;28;20033;-88
2022/06/17 02:17:07;;;;;;;6.65;3.80;;;14.50;99.90;;;;;;5018513;28;20034;-88
2022/06/17 02:19:36;;;;;;;5.45;3.90;;;14.50;99.90;;;;;;5018777;28;20112;-88
2022/06/17 02:22:17;;;;;;;7.88;4.07;;;14.50;99.90;;;;;;5018769;28;20022;-88
2022/06/17 02:24:43;;;;;;;8.05;4.05;;;14.50;99.90;;;;;;5019153;28;20040;-88
2022/06/17 02:27:11;;;;;;;9.38;4.70;;;14.50;99.90;;;;;;5018659;28;20048;-88
2022/06/17 02:29:39;;;;;;;9.52;3.42;;;14.40;99.90;;;;;;5035030;28;20026;-88
2022/06/17 02:32:07;;;;;;;8.25;4.22;;;14.40;99.90;;;;;;5035972;28;20112;-88
2022/06/17 02:34:35;;;;;;;6.07;4.18;;;14.50;99.90;;;;;;5018369;28;20383;-88
2022/06/17 02:37:08;;;;;;;9.07;4.18;;;14.50;99.90;;;;;;5035140;28;20072;-88
2022/06/17 02:39:44;;;;;;;7.80;4.00;;;14.40;99.90;;;;;;5036171;28;20037;-87
2022/06/17 02:42:24;;;;;;;6.07;4.22;;;14.40;99.90;;;;;;5035436;28;20036;-87
2022/06/17 02:44:54;;;;;;;5.85;4.07;;;14.50;99.90;;;;;;5035911;28;20030;-88
2022/06/17 02:47:20;;;;;;;9.63;4.65;;;14.30;99.90;;;;;;5018112;28;20025;-87
2022/06/17 02:49:46;;;;;;;5.30;4.72;;;14.30;99.90;;;;;;5035784;28;20048;-87
2022/06/17 02:52:18;;;;;;;5.72;3.90;;;14.30;99.90;;;;;;5021310;28;20039;-88
2022/06/17 02:54:52;;;;;;;7.15;4.20;;;14.30;99.90;;;;;;5055641;28;20515;-87
2022/06/17 02:57:27;;;;;;;5.75;4.25;;;14.30;99.90;;;;;;5037880;28;20029;-87
2022/06/17 03:00:15;;;;;;;7.10;4.22;;;14.20;99.90;;;;;;5055507;28;20036;-87
2022/06/17 03:02:49;;;;;;;6.90;3.97;;;14.20;99.90;;;;;;5037760;28;20017;-87
2022/06/17 03:05:23;;;;;;;6.55;4.53;;;14.10;99.90;;;;;;5037580;28;20039;-88
2022/06/17 03:07:50;;;;;;;7.53;5.03;;;14.10;99.90;;;;;;5037678;28;20025;-88
2022/06/17 03:10:19;;;;;;;6.20;4.75;;;14.10;99.90;;;;;;5037622;28;20017;-87
2022/06/17 03:12:49;;;;;;;6.25;4.45;;;14.10;99.90;;;;;;5037446;28;20025;-88
2022/06/17 03:15:17;;;;;;;9.50;5.03;;;14.00;99.90;;;;;;5037724;28;20017;-88
2022/06/17 03:17:44;;;;;;;5.60;4.82;;;14.00;99.90;;;;;;5037164;28;20036;-87
2022/06/17 03:20:14;;;;;;;8.90;5.13;;;14.00;99.90;;;;;;5037480;28;20029;-88
2022/06/17 03:22:41;;;;;;;5.70;4.75;;;14.00;99.90;;;;;;5054837;28;20455;-87
2022/06/17 03:25:19;;;;;;;6.72;4.70;;;14.00;99.90;;;;;;5054786;28;20056;-87
2022/06/17 03:27:55;;;;;;;6.00;5.07;;;14.00;99.90;;;;;;5054943;28;20163;-87
2022/06/17 03:30:29;;;;;;;7.65;5.47;;;14.00;99.90;;;;;;5037083;28;20037;-87
2022/06/17 03:33:06;;;;;;;11.13;6.50;;;14.00;99.90;;;;;;5036997;28;20385;-87
2022/06/17 03:35:35;;;;;;;10.57;6.88;;;14.10;99.90;;;;;;5037261;28;20049;-87
2022/06/17 03:38:07;;;;;;;7.22;5.60;;;14.10;99.90;;;;;;5036811;28;20036;-87
2022/06/17 03:40:41;;;;;;;9.35;6.70;;;14.20;99.90;;;;;;5037105;28;20021;-87
2022/06/17 03:43:15;;;;;;;8.82;6.25;;;14.20;99.90;;;;;;5037078;28;20036;-87
2022/06/17 03:45:49;;;;;;;9.70;7.00;;;14.40;99.90;;;;;;5037050;28;20500;-87
2022/06/17 03:48:33;;;;;;;10.20;6.53;;;14.40;99.90;;;;;;5036758;28;20021;-87
2022/06/17 03:50:59;;;;;;;10.50;7.75;;;14.50;99.90;;;;;;5032523;28;20017;-87
2022/06/17 03:53:34;;;;;;;9.77;7.97;;;14.70;99.90;;;;;;5016885;28;20030;-87
2022/06/17 03:56:18;;;;;;;12.02;8.60;;;14.80;99.90;;;;;;5016944;28;20029;-87
2022/06/17 03:58:45;;;;;;;13.20;8.93;;;14.90;99.90;;;;;;5017038;28;20033;-87
2022/06/17 04:01:14;;;;;;;11.40;9.13;;;15.00;99.90;;;;;;5016766;28;20112;-87
2022/06/17 04:03:44;;;;;;;12.05;9.05;;;15.20;99.90;;;;;;5033148;28;20072;-87
2022/06/17 04:06:13;;;;;;;11.07;9.07;;;15.40;99.90;;;;;;5016942;28;20042;-87
2022/06/17 04:08:59;;;;;;;14.30;9.63;;;15.50;99.90;;;;;;5016794;28;20108;-87
2022/06/17 04:11:29;;;;;;;13.52;8.73;;;15.70;99.90;;;;;;5016381;28;20056;-87
2022/06/17 04:13:58;;;;;;;11.02;8.00;;;15.80;99.90;;;;;;5016676;28;20037;-87
2022/06/17 04:16:53;;;;;;;13.25;8.90;;;15.90;99.90;;;;;;5016703;28;20489;-87
2022/06/17 04:19:21;;;;;;;12.40;7.97;;;16.10;99.90;;;;;;5017299;28;20033;-87
2022/06/17 04:21:48;;;;;;;11.23;8.18;;;16.20;99.90;;;;;;5034000;28;20029;-87
2022/06/17 04:24:18;;;;;;;12.05;8.32;;;16.30;99.90;;;;;;5034086;28;20041;-87
2022/06/17 04:26:47;;;;;;;12.20;9.10;;;16.40;99.90;;;;;;5015802;28;20021;-87
2022/06/17 04:29:20;;;;;;;11.73;8.10;;;16.50;99.90;;;;;;5033953;28;20120;-87
2022/06/17 04:31:56;;;;;;;12.18;8.00;;;16.60;99.90;;;;;;5034080;28;20028;-87
2022/06/17 04:34:21;;;;;;;10.38;8.32;;;16.60;99.90;;;;;;5033466;28;20033;-87
2022/06/17 04:36:59;;;;;;;10.93;8.38;;;16.60;99.90;;;;;;5033773;28;20477;-87
2022/06/17 04:39:43;;;;;;;11.20;7.85;;;16.70;99.90;;;;;;5016280;28;20120;-87
2022/06/17 04:42:34;;;;;;;9.90;8.50;;;16.80;99.90;;;;;;5032995;28;20522;-88
2022/06/17 04:45:00;;;;;;;12.38;7.90;;;16.80;99.90;;;;;;5032744;28;20022;-87
2022/06/17 04:47:26;;;;;;;10.32;7.22;;;16.80;99.90;;;;;;5016140;28;20036;-87
2022/06/17 04:49:57;;;;;;;9.43;8.23;;;16.90;99.90;;;;;;5015837;28;20038;-87
2022/06/17 04:52:26;;;;;;;10.07;8.07;;;16.90;99.90;;;;;;5033729;28;20496;-87
2022/06/17 04:54:53;;;;;;;10.60;7.93;;;17.00;99.90;;;;;;5032711;28;20083;-87
2022/06/17 04:57:19;;;;;;;10.38;7.68;;;17.10;99.90;;;;;;5016172;28;20021;-87
2022/06/17 04:59:46;;;;;;;14.85;8.52;;;17.10;99.90;;;;;;5016059;28;20029;-87
2022/06/17 05:02:23;;;;;;;10.57;8.10;;;17.20;99.90;;;;;;5016008;28;20025;-87
2022/06/17 05:04:51;;;;;;;11.90;7.97;;;17.30;99.90;;;;;;5016301;28;20029;-87
2022/06/17 05:07:18;;;;;;;10.05;8.05;;;17.30;99.90;;;;;;5015940;28;20022;-87
2022/06/17 05:09:51;;;;;;;13.05;8.18;;;17.40;99.90;;;;;;5015827;28;20021;-87
2022/06/17 05:12:34;;;;;;;13.13;8.52;;;17.50;99.90;;;;;;5015877;28;20025;-86
2022/06/17 05:15:07;;;;;;;12.95;8.25;;;17.50;99.90;;;;;;5032485;28;20433;-86
2022/06/17 05:17:33;;;;;;;11.27;8.93;;;17.60;99.90;;;;;;5032985;28;20036;-86
2022/06/17 05:19:59;;;;;;;12.07;8.52;;;17.70;99.90;;;;;;5033423;28;20041;-87
2022/06/17 05:22:45;;;;;;;9.65;8.15;;;17.90;99.90;;;;;;5032320;28;20022;-87
2022/06/17 05:25:19;;;;;;;12.60;7.75;;;18.10;99.90;;;;;;5033205;28;20033;-87
2022/06/17 05:27:44;;;;;;;12.45;7.80;;;18.20;99.90;;;;;;5015901;28;20030;-87
2022/06/17 05:30:11;;;;;;;11.32;7.90;;;18.20;99.90;;;;;;5015500;28;20330;-87
2022/06/17 05:32:38;;;;;;;11.57;8.55;;;18.30;99.90;;;;;;5033080;28;20034;-88
2022/06/17 05:35:04;;;;;;;11.40;8.25;;;18.50;99.90;;;;;;5033245;28;20405;-87
2022/06/17 05:37:30;;;;;;;9.93;7.32;;;18.70;99.90;;;;;;5016043;28;20029;-87
2022/06/17 05:39:55;;;;;;;9.00;6.80;;;19.10;99.90;;;;;;5036231;28;20018;-87
2022/06/17 05:42:21;;;;;;;10.68;6.95;;;19.60;99.90;;;;;;5036881;28;20033;-87
2022/06/17 05:44:47;;;;;;;10.82;6.78;;;20.10;99.90;;;;;;5035906;28;20025;-86
2022/06/17 05:47:13;;;;;;;9.48;6.38;;;20.70;99.90;;;;;;5019066;28;20068;-87
2022/06/17 05:49:39;;;;;;;8.20;5.93;;;21.10;99.90;;;;;;5034654;28;20025;-87
2022/06/17 05:52:05;;;;;;;6.80;6.10;;;21.50;99.90;;;;;;5056564;28;20468;-86
2022/06/17 05:54:31;;;;;;;7.50;5.93;;;21.70;99.60;;;;;;5038908;28;20036;-87
2022/06/17 05:56:56;;;;;;;10.32;6.47;;;21.90;98.40;;;;;;5039002;28;20025;-86
2022/06/17 05:59:22;;;;;;;7.15;5.60;;;21.90;97.60;;;;;;5038701;28;20040;-87
2022/06/17 06:01:47;;;;;;;7.05;6.03;;;21.90;97.00;;;;;;5056280;28;20025;-84
2022/06/17 06:04:13;;;;;;;7.88;6.18;;;21.90;96.10;;;;;;5056555;28;20025;-86
2022/06/17 06:06:39;;;;;;;8.65;6.32;;;21.70;95.60;;;;;;5038583;28;20036;-87
2022/06/17 06:09:04;;;;;;;9.88;6.50;;;21.60;95.40;;;;;;5056208;28;20033;-87
2022/06/17 06:11:30;;;;;;;11.40;6.72;;;21.50;95.40;;;;;;5038393;28;20021;-84
2022/06/17 06:13:55;;;;;;;12.15;6.47;;;21.40;95.40;;;;;;5056413;28;20021;-87
2022/06/17 06:16:21;;;;;;;12.65;7.28;;;21.40;95.30;;;;;;5038598;28;20495;-84
2022/06/17 06:18:47;;;;;;;12.15;6.63;;;21.40;95.10;;;;;;5038437;28;20045;-87
2022/06/17 06:21:13;;;;;;;9.18;6.28;;;21.40;95.10;;;;;;5038669;28;20036;-87
2022/06/17 06:23:41;;;;;;;7.70;6.07;;;21.40;95.40;;;;;;5038390;28;20029;-85
2022/06/17 06:26:08;;;;;;;7.53;5.88;;;21.40;95.30;;;;;;5038370;28;20017;-87
2022/06/17 06:28:34;;;;;;;8.30;5.68;;;21.50;95.20;;;;;;5038391;28;20029;-87
2022/06/17 06:31:09;;;;;;;7.60;6.20;;;21.50;95.00;;;;;;5038193;28;20481;-87
2022/06/17 06:33:35;;;;;;;7.97;6.22;;;21.60;94.80;;;;;;5038313;28;20124;-86
2022/06/17 06:36:00;;;;;;;9.35;6.32;;;21.60;94.40;;;;;;5037862;28;20473;-86
2022/06/17 06:38:26;;;;;;;7.32;5.38;;;21.70;94.50;;;;;;5037778;28;20040;-86
2022/06/17 06:40:52;;;;;;;7.47;5.95;;;21.90;94.40;;;;;;5037887;28;20500;-86
2022/06/17 06:43:21;;;;;;;8.73;5.97;;;22.00;94.30;;;;;;5037932;28;20033;-86
2022/06/17 06:45:50;;;;;;;9.35;5.55;;;22.30;93.60;;;;;;5038284;28;20025;-86
2022/06/17 06:48:19;;;;;;;9.98;5.07;;;22.50;93.30;;;;;;5037708;28;20021;-86
2022/06/17 06:50:45;;;;;;;7.35;4.72;;;22.70;92.40;;;;;;5037364;28;20067;-86
2022/06/17 06:53:11;;;;;;;7.35;4.35;;;22.90;92.00;;;;;;5037744;28;20079;-86
2022/06/17 06:55:37;;;;;;;10.95;4.07;;;22.90;91.90;;;;;;5037730;28;20021;-87
2022/06/17 06:58:14;;;;;;;9.65;4.60;;;23.00;91.10;;;;;;5037417;28;20043;-86
2022/06/17 07:00:42;;;;;;;5.13;4.13;;;23.10;91.00;;;;;;5033231;28;20025;-86
2022/06/17 07:03:09;;;;;;;11.70;4.53;;;23.10;90.80;;;;;;5037772;28;20021;-86
2022/06/17 07:05:37;;;;;;;5.93;3.95;;;23.10;90.40;;;;;;5037532;28;20048;-87
2022/06/17 07:08:03;;;;;;;5.97;3.90;;;23.10;90.40;;;;;;5037536;28;20035;-87
2022/06/17 07:10:35;;;;;;;5.57;4.07;;;23.10;90.10;;;;;;5037580;28;20381;-87
2022/06/17 07:13:01;;;;;;;6.07;4.10;;;23.10;90.30;;;;;;5037625;28;20040;-87
2022/06/17 07:15:27;;;;;;;9.40;3.92;;;23.10;90.20;;;;;;5037352;28;20060;-87
2022/06/17 07:18:10;;;;;;;7.32;3.85;;;23.20;89.40;;;;;;5037372;28;20040;-86
2022/06/17 07:20:40;;;;;;;7.68;4.97;;;23.20;88.70;;;;;;5037480;28;20013;-87
2022/06/17 07:23:12;;;;;;;5.50;4.32;;;23.20;88.20;;;;;;5037399;28;20091;-87
2022/06/17 07:25:39;;;;;;;5.40;3.65;;;23.20;88.80;;;;;;5037319;28;20029;-87
2022/06/17 07:28:05;;;;;;;5.47;4.18;;;23.30;88.40;;;;;;5037343;28;20033;-87
2022/06/17 07:30:32;;;;;;;6.85;4.32;;;23.40;88.00;;;;;;5037149;28;20387;-87
2022/06/17 07:32:58;;;;;;;5.25;3.88;;;23.40;87.90;;;;;;5054664;28;20128;-87
2022/06/17 07:35:24;;;;;;;8.60;4.13;;;23.50;87.60;;;;;;5036911;28;20564;-86
2022/06/17 07:40:34;;;;;;;6.13;3.42;;;23.40;86.50;;;;;;5055091;28;20075;-87
2022/06/17 07:43:00;;;;;;;6.43;3.88;;;23.30;85.80;;;;;;5055137;28;20033;-86
2022/06/17 07:45:27;;;;;;;6.25;3.63;;;23.10;85.70;;;;;;5054517;28;20171;-87
2022/06/17 07:47:54;;;;;;;5.15;2.35;;;23.00;86.00;;;;;;5054612;28;20028;-84
2022/06/17 07:50:25;;;;;;;5.55;2.80;;;23.00;85.70;;;;;;5054940;28;20102;-87
2022/06/17 07:52:51;;;;;;;5.75;2.83;;;23.00;85.70;;;;;;5054608;28;20021;-87
2022/06/17 07:55:17;;;;;;;7.20;2.60;;;23.00;85.10;;;;;;5037117;28;20028;-87
2022/06/17 07:57:43;;;;;;;4.43;2.47;;;23.20;84.60;;;;;;5037047;28;20086;-87
2022/06/17 08:00:16;;;;;;;4.10;2.35;;;23.30;84.60;;;;;;5054354;28;20078;-87
2022/06/17 08:02:42;;;;;;;4.65;2.92;;;23.40;84.00;;;;;;5035912;28;20025;-87
2022/06/17 08:05:07;;;;;;;3.88;2.83;;;23.50;83.70;;;;;;5054449;28;20025;-87
2022/06/17 08:07:33;;;;;;;4.18;3.05;;;23.50;83.50;;;;;;5036545;28;20086;-87
2022/06/17 08:09:58;;;;;;;5.32;2.67;;;23.60;83.30;;;;;;5036603;28;20538;-88
2022/06/17 08:12:24;;;;;;;4.20;2.95;;;23.70;83.60;;;;;;5036680;28;20029;-87
2022/06/17 08:14:54;;;;;;;4.38;2.65;;;23.90;82.40;;;;;;5053910;28;20025;-86
2022/06/17 08:17:20;;;;;;;4.85;2.60;;;24.00;81.40;;;;;;5036485;28;20021;-87
2022/06/17 08:19:45;;;;;;;5.88;2.85;;;24.00;81.00;;;;;;5036322;28;20029;-87
2022/06/17 08:22:11;;;;;;;6.25;2.72;;;24.10;80.60;;;;;;5054243;28;20025;-88
2022/06/17 08:24:37;;;;;;;7.75;3.33;;;24.10;80.50;;;;;;5036282;28;20025;-87
2022/06/17 08:27:03;;;;;;;7.95;3.70;;;24.20;80.50;;;;;;5036711;28;20021;-87
2022/06/17 08:29:30;;;;;;;4.22;2.75;;;24.20;80.20;;;;;;5036140;28;20017;-87
2022/06/17 08:32:45;;;;;;;4.63;3.30;;;24.30;79.50;;;;;;5036283;28;20025;-88
2022/06/17 08:34:42;;;;;;;3.67;2.55;;;24.30;79.40;;;;;;5053850;28;20554;-88
2022/06/17 08:37:10;;;;;;;4.50;2.58;;;24.40;78.80;;;;;;5036192;28;20017;-87
2022/06/17 08:39:36;;;;;;;4.57;3.08;;;24.50;78.90;;;;;;5035866;28;20025;-87
2022/06/17 08:42:31;;;;;;;6.53;2.42;;;24.50;78.40;;;;;;5036021;28;20117;-88
2022/06/17 08:45:12;;;;;;;4.90;2.60;;;24.70;78.10;;;;;;4989559;28;20026;-87
2022/06/17 08:47:44;;;;;;;5.68;2.13;;;24.90;77.20;;;;;;5016435;28;20029;-87
2022/06/17 08:50:41;;;;;;;3.55;1.55;;;25.00;76.90;;;;;;5032775;28;20025;-87
2022/06/17 08:53:30;;;;;;;6.00;2.50;;;25.10;76.20;;;;;;5016387;28;20071;-87
2022/06/17 08:56:37;;;;;;;5.90;2.03;;;25.20;75.60;;;;;;5033023;28;20367;-85
2022/06/17 08:59:20;;;;;;;5.82;1.42;;;25.30;74.80;;;;;;4956922;28;20034;-85
2022/06/17 09:02:04;;;;;;;5.25;1.67;;;25.30;73.50;;;;;;4956814;28;20031;-85
2022/06/17 09:04:43;;;;;;;4.00;1.63;;;25.40;73.20;;;;;;4999808;28;20040;-85
2022/06/17 09:07:55;;;;;;;5.97;1.52;;;25.50;72.50;;;;;;5016187;28;20027;-85
2022/06/17 09:10:53;;;;;;;3.67;1.00;;;25.60;70.90;;;;;;4956903;28;20027;-85
2022/06/17 09:13:32;;;;;;;3.15;1.20;;;25.70;71.30;;;;;;4959224;28;20166;-84
2022/06/17 09:16:13;;;;;;;5.32;1.45;;;25.70;70.90;;;;;;5010112;28;20030;-87
2022/06/17 09:18:46;;;;;;;4.43;1.30;;;25.80;70.30;;;;;;5019939;28;20500;-87
2022/06/17 09:21:22;;;;;;;3.50;1.15;;;25.90;68.60;;;;;;5019922;28;20026;-87
2022/06/17 09:23:49;;;;;;;3.38;1.17;;;25.90;69.00;;;;;;5019546;28;20026;-87
2022/06/17 09:26:18;;;;;;;2.85;1.10;;;25.90;68.80;;;;;;5019696;28;20026;-84
2022/06/17 09:29:11;;;;;;;5.72;1.30;;;26.00;68.50;;;;;;5036298;28;20390;-85
2022/06/17 09:31:42;;;;;;;2.13;1.30;;;26.10;68.10;;;;;;5036494;28;20013;-85
2022/06/17 09:34:17;;;;;;;3.97;1.70;;;26.20;67.10;;;;;;5019478;28;20397;-88
2022/06/17 09:36:59;;;;;;;3.35;1.30;;;26.20;66.50;;;;;;5037269;28;20424;-88
2022/06/17 09:39:29;;;;;;;6.15;1.40;;;26.30;66.30;;;;;;5037610;28;20453;-87
2022/06/17 09:42:06;;;;;;;3.63;1.10;;;26.40;65.80;;;;;;5037328;28;20025;-87
2022/06/17 09:44:49;;;;;;;2.42;1.00;;;26.40;65.10;;;;;;5037071;28;20040;-85
2022/06/17 09:47:30;;;;;;;4.43;1.58;;;26.40;65.20;;;;;;5019726;28;20036;-85
2022/06/17 09:50:43;;;;;;;6.55;1.60;;;26.40;65.40;;;;;;5019439;28;20428;-85
2022/06/17 09:53:16;;;;;;;3.17;1.20;;;26.50;65.00;;;;;;5034944;28;20056;-85
2022/06/17 09:55:47;;;;;;;3.65;1.55;;;26.60;65.00;;;;;;5019592;28;20064;-87
2022/06/17 09:58:28;;;;;;;6.40;1.77;;;26.70;64.20;;;;;;5019432;28;20087;-87
2022/06/17 10:00:57;;;;;;;4.07;1.40;;;26.70;64.20;;;;;;5019163;28;20744;-87
2022/06/17 10:03:26;;;;;;;5.22;1.75;;;26.70;64.40;;;;;;5019009;28;20460;-85
2022/06/17 10:05:55;;;;;;;6.57;1.77;;;26.80;64.20;;;;;;5036759;28;20036;-85
2022/06/17 10:08:49;;;;;;;4.47;1.40;;;26.90;63.90;;;;;;5036718;28;20025;-85
2022/06/17 10:11:52;;;;;;;4.28;1.58;;;27.00;63.50;;;;;;5036709;28;20359;-85
2022/06/17 10:14:21;;;;;;;2.25;0.93;;;26.90;62.70;;;;;;5019562;28;20503;-85
2022/06/17 10:20:09;;;;;;;5.13;1.15;;;26.90;62.10;;;;;;5036589;28;20049;-84
2022/06/17 10:23:10;;;;;;;4.65;1.50;;;27.00;61.90;;;;;;5018724;28;20022;-87
2022/06/17 10:25:59;;;;;;;2.10;0.90;;;27.10;61.70;;;;;;5017640;28;20057;-85
2022/06/17 10:28:41;;;;;;;3.53;0.88;;;27.10;60.60;;;;;;5036257;28;20026;-85
2022/06/17 10:31:33;;;;;;;4.38;1.23;;;27.20;60.20;;;;;;5036498;28;20056;-84
2022/06/17 10:34:03;;;;;;;3.20;1.05;;;27.30;60.50;;;;;;5036076;28;20026;-85
2022/06/17 10:36:30;;;;;;;3.92;1.40;;;27.30;59.40;;;;;;5018182;28;20498;-85
2022/06/17 10:38:56;;;;;;;5.82;1.40;;;27.40;59.40;;;;;;5018103;28;20041;-85
2022/06/17 10:41:22;;;;;;;3.90;0.98;;;27.40;59.20;;;;;;5022895;28;20021;-86
2022/06/17 10:43:52;;;;;;;3.60;1.17;;;27.50;59.40;;;;;;5038090;28;20070;-85
2022/06/17 10:46:22;;;;;;;4.93;1.20;;;27.60;58.90;;;;;;5038052;28;20139;-85
2022/06/17 10:49:15;;;;;;;3.55;1.38;;;27.70;58.80;;;;;;5038031;28;20074;-85
2022/06/17 10:51:42;;;;;;;4.13;1.27;;;27.80;58.30;;;;;;5038039;28;20029;-85
2022/06/17 10:54:23;;;;;;;5.63;1.48;;;27.80;58.80;;;;;;5038355;28;20029;-86
2022/06/17 10:57:05;;;;;;;3.15;1.02;;;27.80;58.80;;;;;;5038121;28;20029;-85
2022/06/17 10:59:39;;;;;;;4.40;1.35;;;27.70;58.70;;;;;;5037929;28;20083;-85
2022/06/17 11:02:19;;;;;;;2.42;1.13;;;27.80;57.80;;;;;;5037858;28;20473;-85
2022/06/17 11:04:50;;;;;;;3.30;0.65;;;27.80;57.80;;;;;;5037946;28;20025;-85
2022/06/17 11:07:20;;;;;;;2.42;1.33;;;27.90;57.80;;;;;;5037816;28;20053;-85
2022/06/17 11:09:50;;;;;;;3.78;1.10;;;28.00;57.50;;;;;;5037591;28;20544;-87
2022/06/17 11:12:37;;;;;;;2.30;0.70;;;28.00;57.50;;;;;;5037457;28;20389;-85
2022/06/17 11:15:19;;;;;;;3.45;0.90;;;28.10;57.40;;;;;;5037804;28;20025;-85
2022/06/17 11:17:48;;;;;;;4.35;1.00;;;28.20;56.70;;;;;;5037675;28;20037;-85
2022/06/17 11:20:20;;;;;;;3.47;0.90;;;28.20;56.30;;;;;;5037632;28;20021;-85
2022/06/17 11:22:51;;;;;;;;;;;28.20;56.40;;;;;;5037852;28;20449;-85
2022/06/17 11:25:35;;;;;;;3.67;0.80;;;28.20;56.60;;;;;;5037551;28;19909;-85
2022/06/17 11:28:33;;;;;;;4.15;1.08;;;28.40;57.30;;;;;;5037512;28;20495;-85
2022/06/17 11:31:02;;;;;;;5.25;1.10;;;28.50;56.80;;;;;;5037080;28;20048;-85
2022/06/17 11:33:40;;;;;;;1.58;0.73;;;28.60;56.50;;;;;;5037253;28;20036;-85
2022/06/17 11:36:17;;;;;;;2.17;0.73;;;28.70;57.30;;;;;;5037079;28;20036;-85
2022/06/17 11:38:43;;;;;;;3.22;1.00;;;28.80;57.20;;;;;;5037625;28;20033;-85
2022/06/17 11:41:10;;;;;;;3.42;1.05;;;28.90;56.50;;;;;;5033900;28;20025;-85
2022/06/17 11:43:42;;;;;;;4.60;0.93;;;29.00;56.70;;;;;;5033957;28;20032;-85
2022/06/17 11:46:15;;;;;;;3.03;1.20;;;29.00;56.00;;;;;;5033770;28;20464;-85
2022/06/17 11:48:44;;;;;;;2.63;0.80;;;29.10;55.30;;;;;;5033779;28;20064;-85
2022/06/17 11:51:25;;;;;;;2.40;0.95;;;29.10;55.20;;;;;;5033649;28;20428;-85
2022/06/17 11:53:59;;;;;;;2.97;1.20;;;29.20;55.00;;;;;;5034929;28;20036;-87
2022/06/17 11:56:41;;;;;;;2.30;0.95;;;29.30;55.10;;;;;;5033861;28;20485;-85
2022/06/17 11:59:28;;;;;;;5.13;0.85;;;29.30;54.60;;;;;;5033446;28;20038;-86
2022/06/17 12:01:54;;;;;;;3.25;0.70;;;29.40;54.90;;;;;;5033513;28;20030;-86
2022/06/17 12:04:39;;;;;;;2.63;0.90;;;29.40;54.80;;;;;;5033568;28;20030;-85
2022/06/17 12:07:38;;;;;;;2.78;0.85;;;29.40;54.70;;;;;;5033483;28;20377;-85
2022/06/17 12:10:25;;;;;;;3.47;0.98;;;29.40;54.70;;;;;;5033350;28;20044;-86
2022/06/17 12:12:53;;;;;;;1.80;1.00;;;29.50;54.40;;;;;;5033202;28;20036;-85
2022/06/17 12:15:39;;;;;;;2.33;0.88;;;29.60;54.10;;;;;;5033384;28;20021;-86
2022/06/17 12:18:09;;;;;;;3.72;1.10;;;29.60;53.70;;;;;;5033022;28;20034;-85
2022/06/17 12:20:54;;;;;;;3.63;0.70;;;29.70;53.60;;;;;;5033039;28;20116;-85
2022/06/17 12:23:38;;;;;;;1.92;0.60;;;29.80;54.20;;;;;;5033263;28;20060;-85
2022/06/17 12:26:15;;;;;;;3.70;0.90;;;29.90;54.60;;;;;;5032992;28;20477;-85
2022/06/17 12:28:49;;;;;;;3.90;0.60;;;30.00;53.80;;;;;;5032947;28;20112;-86
2022/06/17 12:31:47;;;;;;;4.32;1.15;;;30.00;53.50;;;;;;5033071;28;20116;-84
2022/06/17 12:34:26;;;;;;;4.45;1.27;;;30.20;53.60;;;;;;5032451;28;20029;-85
2022/06/17 12:37:07;;;;;;;2.80;0.55;;;30.20;53.30;;;;;;5032770;28;20437;-86
2022/06/17 12:39:41;;;;;;;2.53;0.70;;;30.30;53.40;;;;;;5024008;28;20041;-86
2022/06/17 12:42:23;;;;;;;5.20;1.00;;;30.30;52.20;;;;;;5033741;28;20101;-85
2022/06/17 12:45:14;;;;;;;5.57;1.42;;;30.40;52.10;;;;;;5016658;28;20032;-85
2022/06/17 12:48:04;;;;;;;1.65;0.50;;;30.50;51.60;;;;;;5032441;28;20155;-85
2022/06/17 12:53:50;;;;;;;2.67;0.50;;;30.80;51.90;;;;;;5033986;28;20083;-85
2022/06/17 12:56:17;;;;;;;4.13;0.70;;;30.80;50.70;;;;;;5033619;28;20036;-85
2022/06/17 12:59:10;;;;;;;2.55;0.77;;;30.90;50.80;;;;;;5033711;28;20036;-85
2022/06/17 13:01:50;;;;;;;2.47;0.50;;;30.80;50.50;;;;;;5015888;28;20041;-85
2022/06/17 13:04:49;;;;;;;2.05;0.50;;;30.70;51.20;;;;;;5033763;28;20022;-85
2022/06/17 13:07:42;;;;;;;1.00;0.40;;;30.80;50.80;;;;;;5016195;28;20116;-85
2022/06/17 13:10:40;;;;;;;0.75;0.32;;;30.80;50.70;;;;;;5032440;28;20103;-85
2022/06/17 13:13:33;;;;;;;1.00;0.40;;;30.90;50.00;;;;;;5033639;28;20028;-86
2022/06/17 13:16:04;;;;;;;2.63;0.40;;;31.10;49.50;;;;;;5015919;28;20033;-85
2022/06/17 13:18:50;;;;;;;2.22;0.50;;;31.20;49.80;;;;;;5015909;28;20449;-86
2022/06/17 13:22:06;;;;;;;2.78;0.40;;;31.30;49.30;;;;;;5033531;28;20041;-85
2022/06/17 13:24:56;;;;;;;2.13;0.40;;;31.50;49.40;;;;;;5032021;28;20030;-86
2022/06/17 13:27:25;;;;;;;2.47;0.40;;;31.50;48.60;;;;;;5033639;28;20108;-85
2022/06/17 13:30:11;;;;;;;1.88;0.40;;;31.60;48.70;;;;;;5015845;28;20025;-85